Terminal Aerodrome Forecast
Issued by NWS Green Bay, WI

Home | Current Version | Previous Version | Text Only | Print | Product List | Glossary Off
Versions: 1 2 3 4 5 6 7 8 9 10 11 12 13 14 15 16 17

000
FTUS43 KGRB 270525
TAFGRB
TAF
KGRB 270525Z 2706/2806 00000KT P6SM SCT070 BKN120
     FM271000 VRB03KT 6SM -RA BR SCT025 OVC060
     FM271500 06009KT 5SM -SHRA BR BKN015
     FM272300 29007KT 6SM BR BKN010=

USA.gov is the U.S. government's official web portal to all federal, state and local government web resources and services.